Time;durP1;ratioP1;P1;durP2;ratioP2;P2;SDS_P1;SDS_P2;PMS_P1;PMS_P2;Temp;Humidity;BMP_temperature;BMP_pressure;BME280_temperature;BME280_humidity;BME280_pressure;Samples;Min_cycle;Max_cycle;Signal;HPM_P1;HPM_P2
2021/12/28 00:01:17;;;;;;;12.25;7.50;;;;;;;20.75;nan;99855.19;20434236;28;103446;-57
2021/12/28 00:11:17;;;;;;;11.70;6.80;;;;;;;20.69;nan;99839.03;20413409;28;98228;-58
2021/12/28 00:21:18;;;;;;;9.90;6.50;;;;;;;20.66;nan;99836.69;20411360;28;98829;-57
2021/12/28 00:31:19;;;;;;;9.90;6.80;;;;;;;20.63;nan;99843.03;20424224;28;98651;-58
2021/12/28 00:41:22;;;;;;;9.65;6.53;;;;;;;20.61;nan;99839.69;20416957;28;98226;-58
2021/12/28 00:51:23;;;;;;;9.33;6.73;;;;;;;20.57;nan;99847.00;20425749;28;102356;-58
2021/12/28 01:01:27;;;;;;;8.98;6.57;;;;;;;20.53;nan;99845.59;20405374;28;98430;-59
2021/12/28 01:11:28;;;;;;;11.32;6.97;;;;;;;20.50;nan;99850.28;20431224;28;97460;-58
2021/12/28 01:21:28;;;;;;;9.77;6.40;;;;;;;20.46;nan;99842.63;20403365;28;101991;-59
2021/12/28 01:31:29;;;;;;;9.52;6.10;;;;;;;20.44;nan;99834.03;20421867;28;100098;-58
2021/12/28 01:41:31;;;;;;;9.55;6.53;;;;;;;20.42;nan;99832.47;20406526;28;101920;-59
2021/12/28 01:51:32;;;;;;;9.93;6.00;;;;;;;20.39;nan;99830.13;20405340;28;98762;-59
2021/12/28 02:01:34;;;;;;;9.85;6.35;;;;;;;20.36;nan;99815.44;20402959;28;101151;-58
2021/12/28 02:11:35;;;;;;;8.25;5.65;;;;;;;20.36;nan;99817.22;20407045;28;101112;-59
2021/12/28 02:21:38;;;;;;;8.93;6.03;;;;;;;20.34;nan;99811.28;20393905;28;101623;-58
2021/12/28 02:31:38;;;;;;;9.68;6.20;;;;;;;20.32;nan;99808.75;20399777;28;102410;-58
2021/12/28 02:41:39;;;;;;;7.95;5.85;;;;;;;20.29;nan;99804.59;20398955;28;98230;-59
2021/12/28 02:51:40;;;;;;;7.73;5.60;;;;;;;20.26;nan;99785.59;20397771;28;101991;-59
2021/12/28 03:01:40;;;;;;;8.68;6.15;;;;;;;20.23;nan;99777.97;20398780;28;98900;-58
2021/12/28 03:11:41;;;;;;;8.55;5.72;;;;;;;20.19;nan;99784.44;20401845;28;98507;-58
2021/12/28 03:21:43;;;;;;;7.97;5.47;;;;;;;20.17;nan;99804.78;20399386;28;100864;-57
2021/12/28 03:31:44;;;;;;;8.60;5.72;;;;;;;20.14;nan;99784.81;20407868;28;102020;-58
2021/12/28 03:41:45;;;;;;;10.75;5.93;;;;;;;20.13;nan;99784.00;20411673;28;100195;-57
2021/12/28 03:51:45;;;;;;;8.65;5.65;;;;;;;20.15;nan;99794.38;20416401;28;101200;-58
2021/12/28 04:01:46;;;;;;;9.15;5.63;;;;;;;20.15;nan;99800.47;20434066;28;101541;-58
2021/12/28 04:11:47;;;;;;;8.98;5.70;;;;;;;20.15;nan;99795.22;20420510;28;98538;-58
2021/12/28 04:21:47;;;;;;;8.45;5.50;;;;;;;20.19;nan;99800.22;20417247;28;99485;-59
2021/12/28 04:31:48;;;;;;;8.10;6.00;;;;;;;20.24;nan;99790.16;20412627;28;98010;-62
2021/12/28 04:41:48;;;;;;;8.88;5.30;;;;;;;20.28;nan;99802.91;20407129;28;102676;-57
2021/12/28 04:51:50;;;;;;;8.05;5.20;;;;;;;20.31;nan;99791.28;20407692;28;101990;-58
2021/12/28 05:01:50;;;;;;;10.02;6.20;;;;;;;20.33;nan;99792.00;20414260;28;101260;-59
2021/12/28 05:11:51;;;;;;;8.30;5.22;;;;;;;20.34;nan;99788.44;20425440;28;99561;-59
2021/12/28 05:21:52;;;;;;;8.32;4.78;;;;;;;20.45;nan;99801.50;20411379;28;98573;-58
2021/12/28 05:31:52;;;;;;;9.00;5.05;;;;;;;20.56;nan;99800.59;20405431;28;101501;-59
2021/12/28 05:41:53;;;;;;;7.10;5.00;;;;;;;20.63;nan;99807.03;20410875;28;102533;-59
2021/12/28 05:51:54;;;;;;;9.07;5.38;;;;;;;20.70;nan;99802.09;20403247;28;102055;-58
2021/12/28 06:01:56;;;;;;;6.60;4.65;;;;;;;20.78;nan;99820.69;20458752;28;102034;-59
2021/12/28 06:11:56;;;;;;;8.80;4.67;;;;;;;20.88;nan;99830.47;20406487;28;98881;-58
2021/12/28 06:21:57;;;;;;;17.38;4.35;;;;;;;21.03;nan;99823.03;20419658;28;103054;-58
2021/12/28 06:31:57;;;;;;;6.88;4.45;;;;;;;21.18;nan;99847.22;20398516;28;101533;-58
2021/12/28 06:41:59;;;;;;;6.78;4.55;;;;;;;21.23;nan;99859.03;20459128;28;98739;-59
2021/12/28 06:51:59;;;;;;;6.32;4.07;;;;;;;21.31;nan;99841.72;20415357;28;97727;-58
2021/12/28 07:02:00;;;;;;;8.82;4.30;;;;;;;21.39;nan;99837.47;20403548;28;98521;-58
2021/12/28 07:12:02;;;;;;;7.15;3.92;;;;;;;21.46;nan;99848.31;20419780;28;98076;-59
2021/12/28 07:22:03;;;;;;;6.38;4.15;;;;;;;21.56;nan;99865.00;20413911;28;97615;-59
2021/12/28 07:32:06;;;;;;;10.70;4.05;;;;;;;21.64;nan;99881.94;20413047;28;98183;-59
2021/12/28 07:42:06;;;;;;;5.32;3.55;;;;;;;21.70;nan;99865.59;20399781;28;100146;-59
2021/12/28 07:52:07;;;;;;;7.32;4.13;;;;;;;;;;20401647;28;98804;-59
2021/12/28 08:02:08;;;;;;;6.93;3.53;;;;;;;21.77;nan;99869.34;20398861;28;102474;-60
2021/12/28 08:12:09;;;;;;;6.18;3.50;;;;;;;21.80;nan;99873.50;20404256;28;97481;-59
2021/12/28 08:22:10;;;;;;;9.32;3.70;;;;;;;21.79;nan;99867.44;20417347;28;97629;-60
2021/12/28 08:32:10;;;;;;;6.85;3.92;;;;;;;21.80;nan;99874.38;20433023;28;98864;-59
2021/12/28 08:42:13;;;;;;;10.20;5.75;;;;;;;21.68;nan;99868.38;20430207;28;99823;-59
2021/12/28 08:52:14;;;;;;;;;;;;;;;21.68;nan;99870.16;20406755;28;101733;-58
2021/12/28 09:02:16;;;;;;;9.05;4.28;;;;;;;21.62;nan;99871.53;20406796;28;102848;-59
2021/12/28 09:12:18;;;;;;;7.43;4.10;;;;;;;21.57;nan;99871.13;20410839;28;99103;-59
2021/12/28 09:22:21;;;;;;;;;;;;;;;21.55;nan;99857.22;20411174;28;101868;-60
2021/12/28 09:32:21;;;;;;;9.38;4.13;;;;;;;21.47;nan;99846.50;20410059;28;102038;-59
2021/12/28 09:42:25;;;;;;;8.85;3.95;;;;;;;21.42;nan;99846.91;20408334;28;102082;-59
2021/12/28 09:52:27;;;;;;;17.83;9.90;;;;;;;20.25;nan;99855.75;20402201;28;98825;-59
2021/12/28 10:02:29;;;;;;;12.82;7.45;;;;;;;20.63;nan;99856.19;20412953;28;99200;-58
2021/12/28 10:12:36;;;;;;;11.63;6.97;;;;;;;20.86;nan;99848.16;20409532;28;100465;-59
2021/12/28 10:22:43;;;;;;;16.63;8.68;;;;;;;21.00;nan;99839.94;20405196;28;98010;-59
2021/12/28 10:32:51;;;;;;;14.20;8.20;;;;;;;21.11;nan;99829.31;20392792;28;101437;-58
2021/12/28 10:42:57;;;;;;;14.43;9.85;;;;;;;21.18;nan;99831.41;20390523;28;100538;-58
2021/12/28 10:53:06;;;;;;;13.68;8.93;;;;;;;21.23;nan;99810.81;20407897;28;99821;-57
2021/12/28 11:03:13;;;;;;;95.22;43.25;;;;;;;21.35;nan;99811.53;20400138;28;101582;-59
2021/12/28 11:13:20;;;;;;;75.70;36.70;;;;;;;21.43;nan;99804.63;20404055;28;100433;-59
2021/12/28 11:23:26;;;;;;;53.80;26.50;;;;;;;21.42;nan;99799.47;20397486;28;102291;-59
2021/12/28 11:33:41;;;;;;;49.67;23.85;;;;;;;21.52;nan;99783.69;20392234;28;100536;-59
2021/12/28 11:43:43;;;;;;;36.25;18.98;;;;;;;21.58;nan;99772.66;20391868;28;101921;-59
2021/12/28 11:53:46;;;;;;;31.13;16.37;;;;;;;21.57;nan;99742.84;20405054;28;101095;-58
2021/12/28 12:03:48;;;;;;;26.50;15.35;;;;;;;21.55;nan;99728.13;20407716;28;98648;-59
2021/12/28 12:13:53;;;;;;;25.17;13.10;;;;;;;21.53;nan;99715.09;20401712;28;101926;-59
2021/12/28 12:23:54;;;;;;;21.42;12.40;;;;;;;21.52;nan;99691.50;20387247;28;99539;-59
2021/12/28 12:33:56;;;;;;;22.60;11.05;;;;;;;21.55;nan;99680.72;20400044;28;98975;-59
2021/12/28 12:43:59;;;;;;;21.25;10.05;;;;;;;21.55;nan;99652.53;20406525;28;99458;-60
2021/12/28 12:54:06;;;;;;;18.00;9.23;;;;;;;21.54;nan;99653.50;20407217;28;98795;-59
2021/12/28 13:04:25;;;;;;;15.15;8.82;;;;;;;21.55;nan;99663.09;20459345;28;98632;-60
2021/12/28 13:14:26;;;;;;;11.55;7.55;;;;;;;21.55;nan;99671.00;20422182;28;99706;-59
2021/12/28 13:24:29;;;;;;;13.20;7.50;;;;;;;21.55;nan;99675.44;20406258;28;98304;-60
2021/12/28 13:34:29;;;;;;;11.73;6.57;;;;;;;21.56;nan;99677.09;20405191;28;98847;-60
2021/12/28 13:44:30;;;;;;;11.63;6.35;;;;;;;21.53;nan;99670.31;20400826;28;102458;-59
2021/12/28 13:54:31;;;;;;;10.30;5.95;;;;;;;21.54;nan;99663.22;20426447;28;103616;-59
2021/12/28 14:04:34;;;;;;;9.07;5.32;;;;;;;21.55;nan;99675.44;20413800;28;102595;-59
2021/12/28 14:14:37;;;;;;;8.83;5.30;;;;;;;21.55;nan;99660.44;20398242;28;100062;-59
2021/12/28 14:24:43;;;;;;;8.82;4.95;;;;;;;21.60;nan;99660.06;20445966;28;98605;-58
2021/12/28 14:34:46;;;;;;;8.55;4.38;;;;;;;21.62;nan;99673.09;20407221;28;101900;-58
2021/12/28 14:45:05;;;;;;;6.82;4.55;;;;;;;21.58;nan;99662.00;20415725;28;97929;-59
2021/12/28 14:55:30;;;;;;;6.53;4.13;;;;;;;21.53;nan;99658.94;20407929;28;101058;-59
2021/12/28 15:05:41;;;;;;;6.18;3.85;;;;;;;21.48;nan;99653.25;20399739;28;97649;-59
2021/12/28 15:15:42;;;;;;;8.23;4.40;;;;;;;21.44;nan;99656.16;20401171;28;98589;-58
2021/12/28 15:25:43;;;;;;;7.15;3.78;;;;;;;21.40;nan;99659.22;20433356;28;101090;-60
2021/12/28 15:35:46;;;;;;;8.48;4.30;;;;;;;21.38;nan;99658.53;20457662;28;101858;-59
2021/12/28 15:45:51;;;;;;;15.32;3.80;;;;;;;21.35;nan;99664.03;20426950;28;101004;-59
2021/12/28 15:55:52;;;;;;;10.13;3.83;;;;;;;21.39;nan;99663.63;20409211;28;102791;-59
2021/12/28 16:05:53;;;;;;;7.85;3.70;;;;;;;21.42;nan;99654.63;20406303;27;98213;-59
2021/12/28 16:15:53;;;;;;;9.82;3.45;;;;;;;21.49;nan;99668.09;20420361;28;98422;-59
2021/12/28 16:25:54;;;;;;;5.47;3.55;;;;;;;21.56;nan;99661.31;20410732;28;98711;-60
2021/12/28 16:35:56;;;;;;;9.73;3.60;;;;;;;21.57;nan;99645.38;20427763;28;103349;-60
2021/12/28 16:46:00;;;;;;;6.63;3.20;;;;;;;21.57;nan;99636.66;20415048;28;99352;-60
2021/12/28 16:56:02;;;;;;;7.45;3.03;;;;;;;21.55;nan;99635.94;20414026;28;103403;-60
2021/12/28 17:06:03;;;;;;;10.15;3.03;;;;;;;21.52;nan;99649.34;20422879;28;100221;-61
2021/12/28 17:16:05;;;;;;;10.40;3.13;;;;;;;21.50;nan;99641.59;20481803;28;98395;-60
2021/12/28 17:26:06;;;;;;;12.27;2.80;;;;;;;21.54;nan;99624.53;20448354;28;101223;-59
2021/12/28 17:36:08;;;;;;;7.28;3.33;;;;;;;21.58;nan;99622.50;20403331;28;97970;-60
2021/12/28 17:46:09;;;;;;;6.13;2.63;;;;;;;21.64;nan;99605.28;20418995;28;97702;-60
2021/12/28 17:56:10;;;;;;;6.10;2.55;;;;;;;21.69;nan;99595.16;20414036;28;99668;-60
2021/12/28 18:06:10;;;;;;;5.10;2.75;;;;;;;21.77;nan;99599.75;20435322;28;102823;-62
2021/12/28 18:16:13;;;;;;;32.00;12.95;;;;;;;21.92;nan;99585.13;20421859;28;101080;-61
2021/12/28 18:26:13;;;;;;;33.90;12.90;;;;;;;21.98;nan;99576.63;20429468;28;99523;-60
2021/12/28 18:36:15;;;;;;;29.33;11.25;;;;;;;21.90;nan;99566.81;20417288;28;98363;-61
2021/12/28 18:46:15;;;;;;;34.55;9.32;;;;;;;21.81;nan;99569.50;20414801;28;98869;-61
2021/12/28 18:56:20;;;;;;;21.80;7.28;;;;;;;21.86;nan;99580.41;20400197;28;101002;-60
2021/12/28 19:06:21;;;;;;;14.43;5.80;;;;;;;21.91;nan;99565.84;20408140;28;100492;-60
2021/12/28 19:16:21;;;;;;;15.67;8.20;;;;;;;21.99;nan;99573.03;20402204;28;103538;-61
2021/12/28 19:26:22;;;;;;;27.30;13.00;;;;;;;22.11;nan;99567.59;20410394;28;102484;-61
2021/12/28 19:36:23;;;;;;;62.88;43.15;;;;;;;22.16;nan;99570.63;20402423;28;99955;-61
2021/12/28 19:46:24;;;;;;;66.60;46.03;;;;;;;22.19;nan;99571.16;20400447;28;103738;-60
2021/12/28 19:56:26;;;;;;;61.38;42.83;;;;;;;22.19;nan;99576.44;20402170;28;98966;-60
2021/12/28 20:06:26;;;;;;;55.77;37.20;;;;;;;22.17;nan;99561.75;20429863;28;100149;-60
2021/12/28 20:16:28;;;;;;;47.17;33.10;;;;;;;22.10;nan;99548.31;20473582;28;101331;-60
2021/12/28 20:26:31;;;;;;;43.13;29.95;;;;;;;22.11;nan;99549.97;20443134;28;101172;-60
2021/12/28 20:36:32;;;;;;;40.77;28.13;;;;;;;22.15;nan;99527.59;20431417;28;104719;-60
2021/12/28 20:46:34;;;;;;;35.85;23.67;;;;;;;22.16;nan;99504.72;20412564;28;99906;-61
2021/12/28 20:56:34;;;;;;;35.33;22.70;;;;;;;22.08;nan;99500.16;20412397;28;98549;-60
2021/12/28 21:06:40;;;;;;;27.73;20.02;;;;;;;21.95;nan;99502.28;20413035;28;101503;-61
2021/12/28 21:16:42;;;;;;;26.27;19.23;;;;;;;21.81;nan;99491.25;20419739;28;97568;-61
2021/12/28 21:26:42;;;;;;;22.92;17.83;;;;;;;21.70;nan;99496.72;20415401;28;102769;-60
2021/12/28 21:36:43;;;;;;;25.38;17.10;;;;;;;21.57;nan;99491.78;20412233;27;98505;-61
2021/12/28 21:46:44;;;;;;;24.20;15.80;;;;;;;21.44;nan;99492.84;20395577;28;102319;-60
2021/12/28 21:56:45;;;;;;;19.65;14.38;;;;;;;21.33;nan;99469.31;20422440;28;102120;-60
2021/12/28 22:06:46;;;;;;;17.75;12.25;;;;;;;21.25;nan;99485.84;20409069;28;98038;-61
2021/12/28 22:16:48;;;;;;;16.60;12.13;;;;;;;21.20;nan;99469.66;20432220;28;97638;-60
2021/12/28 22:26:49;;;;;;;17.07;11.37;;;;;;;21.18;nan;99463.69;20402969;28;100105;-59
2021/12/28 22:36:51;;;;;;;13.52;10.10;;;;;;;21.16;nan;99475.34;20380986;28;104299;-59
2021/12/28 22:46:52;;;;;;;14.00;10.07;;;;;;;21.11;nan;99459.94;20374384;28;101359;-60
2021/12/28 22:56:53;;;;;;;13.05;8.70;;;;;;;21.05;nan;99458.69;20408242;28;98262;-60
2021/12/28 23:06:53;;;;;;;11.60;8.30;;;;;;;20.99;nan;99464.53;20398183;28;107926;-61
2021/12/28 23:16:57;;;;;;;11.48;7.43;;;;;;;20.96;nan;99480.63;20400162;28;102150;-59
2021/12/28 23:26:57;;;;;;;10.00;7.07;;;;;;;20.93;nan;99480.88;20414233;28;98024;-60
2021/12/28 23:37:01;;;;;;;9.80;6.30;;;;;;;20.88;nan;99468.13;20385108;28;97792;-61
2021/12/28 23:47:02;;;;;;;9.07;5.97;;;;;;;20.87;nan;99450.72;20385903;28;98164;-59
2021/12/28 23:57:04;;;;;;;6.65;5.35;;;;;;;20.79;nan;99422.44;20397545;28;102861;-59
